Time;durP1;ratioP1;P1;durP2;ratioP2;P2;SDS_P1;SDS_P2;PMS_P1;PMS_P2;Temp;Humidity;BMP_temperature;BMP_pressure;BME280_temperature;BME280_humidity;BME280_pressure;Samples;Min_cycle;Max_cycle;Signal;HPM_P1;HPM_P2
2022/09/02 00:01:56;;;;;;;3.10;2.00;;;;;;;11.79;58.55;101610.48;1714850;82;21771;-76
2022/09/02 00:04:41;;;;;;;4.75;1.70;;;;;;;11.75;58.59;101612.63;1718986;82;21057;-76
2022/09/02 00:07:26;;;;;;;2.10;1.35;;;;;;;11.67;58.67;101603.16;1704662;81;21070;-76
2022/09/02 00:10:11;;;;;;;5.28;1.42;;;;;;;11.66;58.74;101602.30;1694169;82;21108;-76
2022/09/02 00:12:56;;;;;;;1.10;0.98;;;;;;;11.65;58.77;101603.60;1733715;81;21101;-76
2022/09/02 00:15:43;;;;;;;3.08;1.10;;;;;;;11.62;58.77;101603.18;1728826;81;21161;-76
2022/09/02 00:18:28;;;;;;;;;;;;;;;11.58;58.78;101605.36;1726632;82;21045;-76
2022/09/02 00:21:14;;;;;;;3.62;1.20;;;;;;;11.54;59.04;101602.35;1731185;82;20244;-76
2022/09/02 00:24:02;;;;;;;1.85;1.35;;;;;;;11.52;58.79;101604.95;1702068;83;21645;-76
2022/09/02 00:26:48;;;;;;;2.35;1.22;;;;;;;11.46;58.81;101603.67;1722526;81;21100;-76
2022/09/02 00:29:32;;;;;;;1.85;1.57;;;;;;;11.41;58.84;101597.68;1708296;83;21042;-77
2022/09/02 00:32:18;;;;;;;6.33;1.17;;;;;;;11.38;58.85;101600.72;1707052;83;21092;-77
2022/09/02 00:35:04;;;;;;;3.17;1.40;;;;;;;11.34;59.01;101601.16;1706905;82;21100;-76
2022/09/02 00:37:49;;;;;;;;;;;;;;;11.31;58.97;101602.46;1701000;83;21065;-76
2022/09/02 00:40:35;;;;;;;1.62;1.22;;;;;;;11.29;59.36;101600.31;1721215;83;20939;-76
2022/09/02 00:43:46;;;;;;;1.35;0.90;;;;;;;11.31;59.06;101599.02;1722231;81;21041;-76
2022/09/02 00:46:33;;;;;;;1.20;1.10;;;;;;;11.24;59.06;101600.76;1723502;81;21061;-76
2022/09/02 00:49:29;;;;;;;2.22;1.07;;;;;;;11.16;59.09;101598.19;1723777;82;21568;-76
2022/09/02 00:52:25;;;;;;;4.25;1.37;;;;;;;11.16;59.05;101600.78;1712930;83;20981;-76
2022/09/02 00:55:27;;;;;;;2.15;1.07;;;;;;;11.12;59.09;101596.47;1720079;83;21397;-76
2022/09/02 00:58:20;;;;;;;1.10;1.00;;;;;;;11.07;59.15;101598.64;1727626;81;21047;-76
2022/09/02 01:01:04;;;;;;;2.58;1.17;;;;;;;11.01;59.11;101600.81;1725108;80;20976;-76
2022/09/02 01:03:50;;;;;;;1.25;1.15;;;;;;;10.93;59.15;101601.25;1732308;81;21060;-76
2022/09/02 01:06:38;;;;;;;2.80;1.10;;;;;;;10.90;59.26;101601.29;1723405;83;21092;-77
2022/09/02 01:09:22;;;;;;;2.05;1.10;;;;;;;10.90;59.27;101604.74;1719290;81;21116;-76
2022/09/02 01:12:11;;;;;;;1.12;1.00;;;;;;;10.90;59.31;101601.29;1718152;83;21108;-76
2022/09/02 01:14:56;;;;;;;4.65;1.30;;;;;;;10.86;59.27;101603.02;1722336;83;21497;-76
2022/09/02 01:17:47;;;;;;;3.05;1.07;;;;;;;10.80;59.35;101607.34;1723598;81;21020;-76
2022/09/02 01:20:33;;;;;;;2.65;1.30;;;;;;;10.78;59.39;101603.45;1723689;83;21112;-76
2022/09/02 01:23:18;;;;;;;4.65;1.27;;;;;;;10.74;59.44;101606.05;1723357;83;21085;-76
2022/09/02 01:26:06;;;;;;;1.10;0.88;;;;;;;10.72;59.42;101606.05;1722752;83;21829;-76
2022/09/02 01:28:51;;;;;;;1.42;1.02;;;;;;;10.67;59.47;101600.02;1723166;83;21046;-76
2022/09/02 01:31:37;;;;;;;3.27;1.32;;;;;;;10.65;59.54;101608.20;1723093;82;21053;-76
2022/09/02 01:34:23;;;;;;;4.43;1.27;;;;;;;10.66;59.57;101602.61;1722612;81;21057;-76
2022/09/02 01:37:08;;;;;;;1.25;0.90;;;;;;;10.65;59.62;101602.17;1716045;83;21794;-77
2022/09/02 01:39:55;;;;;;;1.12;0.90;;;;;;;10.67;59.62;101606.48;1710689;81;21081;-77
2022/09/02 01:42:41;;;;;;;1.70;0.95;;;;;;;10.63;59.55;101606.48;1730812;81;21013;-77
2022/09/02 01:45:28;;;;;;;1.77;1.37;;;;;;;10.59;59.55;101610.80;1723382;83;20977;-77
2022/09/02 01:48:14;;;;;;;2.45;1.30;;;;;;;10.53;59.58;101610.80;1723438;82;21038;-77
2022/09/02 01:51:03;;;;;;;1.40;0.80;;;;;;;10.49;59.62;101608.64;1696401;82;21496;-77
2022/09/02 01:53:48;;;;;;;4.60;1.30;;;;;;;10.43;59.64;101611.22;1701405;82;21129;-77
2022/09/02 01:56:33;;;;;;;2.02;1.22;;;;;;;10.35;59.66;101611.67;1713932;82;21533;-77
2022/09/02 01:59:19;;;;;;;2.08;1.05;;;;;;;10.30;59.76;101607.36;1714837;80;21532;-77
2022/09/02 02:02:05;;;;;;;3.98;1.45;;;;;;;10.29;59.78;101610.38;1725407;82;21116;-77
2022/09/02 02:04:50;;;;;;;1.67;1.10;;;;;;;10.23;59.79;101610.36;1701657;82;22493;-77
2022/09/02 02:07:34;;;;;;;3.20;1.25;;;;;;;10.23;59.91;101603.47;1721178;82;21089;-77
2022/09/02 02:10:21;;;;;;;2.00;1.25;;;;;;;10.26;59.87;101611.66;1723650;82;21026;-77
2022/09/02 02:13:06;;;;;;;2.92;1.30;;;;;;;10.22;59.93;101608.21;1698510;82;21095;-77
2022/09/02 02:15:51;;;;;;;2.12;0.88;;;;;;;10.20;59.93;101605.19;1722185;81;21097;-77
2022/09/02 02:18:36;;;;;;;1.12;1.00;;;;;;;10.19;59.94;101606.02;1695238;82;21537;-77
2022/09/02 02:21:22;;;;;;;1.27;1.17;;;;;;;10.16;59.92;101604.29;1716976;81;21054;-77
2022/09/02 02:24:07;;;;;;;1.10;1.00;;;;;;;10.09;59.92;101606.86;1711751;82;21621;-77
2022/09/02 02:26:52;;;;;;;2.70;1.20;;;;;;;10.08;60.02;101609.87;1713183;82;21537;-77
2022/09/02 02:29:37;;;;;;;1.05;0.98;;;;;;;10.06;60.03;101606.85;1707582;82;21037;-77
2022/09/02 02:32:24;;;;;;;6.08;1.77;;;;;;;10.05;60.12;101601.25;1713069;82;21035;-77
2022/09/02 02:35:10;;;;;;;2.98;1.27;;;;;;;10.08;60.12;101606.00;1716679;82;21124;-77
2022/09/02 02:37:55;;;;;;;3.60;1.10;;;;;;;10.07;60.14;101597.81;1717630;82;21054;-76
2022/09/02 02:40:40;;;;;;;3.98;1.35;;;;;;;10.13;60.13;101598.25;1698459;82;21117;-76
2022/09/02 02:43:26;;;;;;;2.37;1.05;;;;;;;10.06;60.07;101602.55;1711908;82;21093;-76
2022/09/02 02:46:11;;;;;;;1.35;1.02;;;;;;;10.01;60.12;101600.81;1681212;84;21077;-77
2022/09/02 02:48:58;;;;;;;2.75;1.00;;;;;;;9.98;60.20;101597.79;1713446;82;21120;-77
2022/09/02 02:51:44;;;;;;;2.52;0.98;;;;;;;9.96;60.21;101601.66;1729757;82;21085;-77
2022/09/02 02:54:29;;;;;;;4.42;2.08;;;;;;;9.96;60.24;101606.83;1726855;82;20981;-77
2022/09/02 02:57:14;;;;;;;1.80;1.00;;;;;;;9.88;60.20;101604.66;1719830;82;21022;-77
2022/09/02 03:00:13;;;;;;;1.98;1.22;;;;;;;9.82;60.27;101607.25;1714371;80;22159;-77
2022/09/02 03:03:06;;;;;;;3.10;1.27;;;;;;;9.80;60.36;101609.40;1708463;82;20927;-77
2022/09/02 03:05:51;;;;;;;2.22;1.40;;;;;;;9.80;60.37;101605.52;1705423;82;20887;-77
2022/09/02 03:08:36;;;;;;;3.55;1.35;;;;;;;9.79;60.34;101612.41;1715137;82;20911;-77
2022/09/02 03:11:21;;;;;;;2.45;1.40;;;;;;;9.77;60.34;101611.97;1693157;84;21061;-77
2022/09/02 03:14:07;;;;;;;1.30;1.02;;;;;;;9.72;60.35;101605.92;1731554;81;21037;-77
2022/09/02 03:16:52;;;;;;;1.77;1.10;;;;;;;9.69;60.34;101602.04;1706758;82;21310;-77
2022/09/02 03:19:36;;;;;;;3.72;1.52;;;;;;;9.66;60.30;101608.05;1715476;82;21085;-77
2022/09/02 03:22:22;;;;;;;1.77;1.40;;;;;;;9.63;60.37;101601.59;1711541;82;21438;-76
2022/09/02 03:25:10;;;;;;;7.17;1.30;;;;;;;9.59;60.35;101603.30;1696276;82;21064;-76
2022/09/02 03:27:55;;;;;;;1.55;1.40;;;;;;;9.56;60.38;101603.71;1682790;83;20920;-77
2022/09/02 03:30:41;;;;;;;1.40;1.30;;;;;;;9.50;60.42;101599.81;1667470;84;20938;-76
2022/09/02 03:33:25;;;;;;;2.17;1.10;;;;;;;9.47;60.45;101607.11;1677888;84;21376;-76
2022/09/02 03:36:30;;;;;;;1.80;1.10;;;;;;;9.42;60.40;101612.69;1675738;83;20930;-76
2022/09/02 03:39:15;;;;;;;1.62;1.20;;;;;;;9.36;60.43;101615.23;1658109;85;444919;-76
2022/09/02 03:42:00;;;;;;;2.42;1.25;;;;;;;9.32;60.45;101609.66;1649291;85;20937;-76
2022/09/02 03:44:45;;;;;;;2.60;1.40;;;;;;;9.24;60.50;101619.94;1628818;86;20960;-76
2022/09/02 03:47:30;;;;;;;2.42;1.20;;;;;;;9.20;60.58;101616.90;1657468;84;20963;-76
2022/09/02 03:50:14;;;;;;;2.92;1.30;;;;;;;9.25;60.65;101621.66;1668125;84;20972;-76
2022/09/02 03:53:00;;;;;;;2.98;1.30;;;;;;;9.22;60.57;101620.36;1655323;83;21132;-76
2022/09/02 03:55:45;;;;;;;4.90;1.55;;;;;;;9.18;60.63;101616.45;1660117;84;21598;-76
2022/09/02 03:58:30;;;;;;;1.95;1.22;;;;;;;9.14;60.63;101616.00;1648964;84;21124;-76
2022/09/02 04:01:20;;;;;;;2.08;1.35;;;;;;;9.10;60.68;101623.28;1658031;84;21230;-76
2022/09/02 04:04:05;;;;;;;6.25;1.82;;;;;;;9.08;60.82;101622.41;1668284;84;21042;-76
2022/09/02 04:06:51;;;;;;;5.65;1.40;;;;;;;9.13;60.85;101622.02;1652568;84;21411;-76
2022/09/02 04:09:36;;;;;;;4.35;1.50;;;;;;;9.18;60.84;101623.77;1667122;85;21419;-76
2022/09/02 04:12:22;;;;;;;3.17;1.52;;;;;;;9.24;60.86;101628.97;1660780;84;21123;-74
2022/09/02 04:15:10;;;;;;;2.20;1.42;;;;;;;9.24;60.82;101629.39;1629167;87;21680;-74
2022/09/02 04:17:55;;;;;;;2.55;1.40;;;;;;;9.20;60.86;101627.22;1658461;85;20921;-73
2022/09/02 04:20:42;;;;;;;4.22;1.85;;;;;;;9.17;60.90;101628.92;1659987;85;21445;-73
2022/09/02 04:23:27;;;;;;;5.90;1.75;;;;;;;9.15;60.94;101631.49;1654182;86;24813;-73
2022/09/02 04:26:16;;;;;;;3.87;1.80;;;;;;;9.15;60.94;101631.49;1658055;83;20955;-73
2022/09/02 04:29:01;;;;;;;3.90;1.60;;;;;;;9.17;60.96;101628.50;1696873;83;20942;-73
2022/09/02 04:31:45;;;;;;;3.85;1.47;;;;;;;9.15;60.96;101630.63;1692581;83;21528;-73
2022/09/02 04:34:30;;;;;;;4.45;1.67;;;;;;;9.17;61.02;101628.50;1661410;84;20936;-73
2022/09/02 04:37:15;;;;;;;1.55;1.37;;;;;;;9.17;60.98;101627.20;1660718;85;21396;-73
2022/09/02 04:40:00;;;;;;;2.42;1.50;;;;;;;9.15;61.07;101633.20;1685081;83;20901;-73
2022/09/02 04:42:46;;;;;;;3.87;1.45;;;;;;;9.18;61.10;101635.38;1695864;83;21370;-73
2022/09/02 04:45:30;;;;;;;3.35;2.00;;;;;;;9.19;61.10;101628.50;1662993;84;21470;-73
2022/09/02 04:48:16;;;;;;;5.53;1.90;;;;;;;9.20;61.22;101629.80;1693874;84;21492;-73
2022/09/02 04:51:09;;;;;;;6.77;2.03;;;;;;;9.19;61.18;101630.66;1662470;84;21108;-73
2022/09/02 04:53:54;;;;;;;4.28;2.15;;;;;;;9.20;61.29;101630.23;1683744;83;21090;-73
2022/09/02 04:56:39;;;;;;;6.17;2.10;;;;;;;9.21;61.33;101630.23;1684039;83;21460;-73
2022/09/02 04:59:24;;;;;;;9.28;2.35;;;;;;;9.23;61.41;101628.95;1684129;83;21079;-73
2022/09/02 05:02:10;;;;;;;10.63;2.42;;;;;;;9.27;61.47;101635.86;1691928;83;21475;-73
2022/09/02 05:04:55;;;;;;;4.30;2.00;;;;;;;9.32;61.54;101641.91;1666144;83;21073;-73
2022/09/02 05:07:40;;;;;;;5.90;1.92;;;;;;;9.36;61.55;101640.22;1693944;83;21590;-73
2022/09/02 05:10:25;;;;;;;5.33;2.20;;;;;;;9.35;61.59;101631.61;1671722;84;21107;-73
2022/09/02 05:13:11;;;;;;;6.37;1.72;;;;;;;9.46;61.66;101638.09;1670419;84;21063;-73
2022/09/02 05:15:56;;;;;;;6.83;1.98;;;;;;;9.59;61.83;101641.16;1665787;84;21059;-73
2022/09/02 05:18:41;;;;;;;6.35;2.00;;;;;;;9.76;61.90;101638.66;1674973;83;21066;-73
2022/09/02 05:21:26;;;;;;;10.48;2.80;;;;;;;10.00;61.97;101643.87;1669340;83;21055;-73
2022/09/02 05:24:12;;;;;;;9.20;2.33;;;;;;;10.24;62.04;101640.52;1670649;83;21215;-73
2022/09/02 05:26:57;;;;;;;8.40;2.92;;;;;;;10.47;62.05;101637.94;1661631;83;21133;-73
2022/09/02 05:29:43;;;;;;;2.72;1.70;;;;;;;10.67;62.11;101638.81;1674420;83;22228;-73
2022/09/02 05:32:30;;;;;;;33.70;3.30;;;;;;;10.85;62.20;101637.52;1681598;83;21388;-73
2022/09/02 05:35:16;;;;;;;12.82;3.35;;;;;;;11.04;62.30;101633.16;1682179;83;21098;-73
2022/09/02 05:38:01;;;;;;;9.45;2.58;;;;;;;11.23;62.38;101633.55;1680481;83;21558;-73
2022/09/02 05:40:46;;;;;;;17.00;3.00;;;;;;;11.42;62.51;101636.95;1664276;84;21122;-73
2022/09/02 05:43:31;;;;;;;18.57;3.25;;;;;;;11.61;62.58;101639.88;1677141;82;21130;-73
2022/09/02 05:46:20;;;;;;;7.83;2.22;;;;;;;11.81;62.69;101643.72;1688276;82;21405;-73
2022/09/02 05:49:06;;;;;;;9.65;2.50;;;;;;;12.03;62.77;101632.78;1685977;82;21091;-73
2022/09/02 05:51:55;;;;;;;5.55;2.50;;;;;;;12.31;62.90;101636.07;1697502;83;21118;-73
2022/09/02 05:54:41;;;;;;;3.35;2.02;;;;;;;12.51;62.94;101634.16;1693910;82;21050;-74
2022/09/02 05:57:26;;;;;;;6.37;2.12;;;;;;;12.67;62.97;101637.50;1690547;83;21136;-73
2022/09/02 06:00:14;;;;;;;5.37;2.02;;;;;;;12.86;62.97;101637.77;1699434;82;21036;-73
2022/09/02 06:02:58;;;;;;;8.68;2.62;;;;;;;12.99;62.96;101637.22;1694699;82;21909;-73
2022/09/02 06:05:56;;;;;;;4.12;2.20;;;;;;;13.15;62.99;101645.25;1680238;83;20932;-73
2022/09/02 06:08:42;;;;;;;3.58;2.12;;;;;;;13.27;63.01;101649.94;1703110;83;20952;-73
2022/09/02 06:11:27;;;;;;;2.47;2.27;;;;;;;13.37;63.05;101648.96;1695620;82;20916;-73
2022/09/02 06:14:13;;;;;;;3.83;2.20;;;;;;;13.48;63.04;101648.41;1669217;83;20992;-73
2022/09/02 06:16:59;;;;;;;4.67;2.22;;;;;;;13.57;63.05;101647.83;1702071;82;20960;-73
2022/09/02 06:19:44;;;;;;;3.95;2.33;;;;;;;13.66;63.05;101649.46;1680047;83;20930;-73
2022/09/02 06:22:29;;;;;;;3.30;2.30;;;;;;;13.76;63.19;101652.37;1691428;83;20974;-73
2022/09/02 06:25:14;;;;;;;4.47;2.58;;;;;;;13.79;63.16;101648.88;1708690;83;21368;-73
2022/09/02 06:27:59;;;;;;;5.25;2.33;;;;;;;13.89;63.14;101648.73;1691099;83;21445;-73
2022/09/02 06:30:47;;;;;;;5.62;1.95;;;;;;;14.05;63.15;101640.70;1673284;83;21072;-73
2022/09/02 06:33:32;;;;;;;5.28;2.08;;;;;;;14.20;63.17;101650.45;1710776;82;20934;-74
2022/09/02 06:36:19;;;;;;;4.75;2.55;;;;;;;14.43;63.21;101647.55;1698470;83;21050;-73
2022/09/02 06:39:03;;;;;;;;;;;;;;;14.68;63.15;101645.83;1681355;83;21121;-73
2022/09/02 06:41:49;;;;;;;5.97;2.20;;;;;;;14.89;63.39;101650.23;1674176;83;20172;-73
2022/09/02 06:44:34;;;;;;;3.70;2.00;;;;;;;15.10;63.12;101645.50;1683954;82;21095;-73
2022/09/02 06:47:19;;;;;;;4.33;2.17;;;;;;;15.30;63.15;101649.05;1707839;82;21002;-73
2022/09/02 06:50:05;;;;;;;2.47;1.85;;;;;;;15.46;63.14;101647.42;1710435;82;21344;-73
2022/09/02 06:52:50;;;;;;;5.72;1.60;;;;;;;15.67;63.08;101644.83;1717582;82;21073;-73
2022/09/02 06:55:38;;;;;;;1.77;1.32;;;;;;;15.85;63.01;101652.28;1699618;82;21026;-74
2022/09/02 06:58:23;;;;;;;2.05;1.52;;;;;;;16.04;62.98;101646.22;1714386;82;21121;-74
2022/09/02 07:01:12;;;;;;;1.60;1.10;;;;;;;16.19;62.90;101650.20;1710477;82;21121;-74
2022/09/02 07:07:03;;;;;;;1.92;0.98;;;;;;;16.45;62.72;101655.69;1666629;84;21517;-74
2022/09/02 07:09:48;;;;;;;3.42;1.62;;;;;;;16.58;62.66;101653.64;1700756;82;21083;-73
2022/09/02 07:12:39;;;;;;;2.87;1.00;;;;;;;16.68;62.67;101654.28;1684085;83;22294;-73
2022/09/02 07:15:24;;;;;;;2.17;0.93;;;;;;;16.80;62.61;101647.00;1684295;82;21117;-73
2022/09/02 07:18:09;;;;;;;5.62;0.70;;;;;;;16.99;62.57;101655.68;1688540;82;21119;-73
2022/09/02 07:20:55;;;;;;;1.17;0.68;;;;;;;17.10;62.42;101651.03;1683831;83;21636;-73
2022/09/02 07:23:41;;;;;;;1.63;0.83;;;;;;;17.25;62.36;101657.13;1694119;82;21014;-73
2022/09/02 07:26:28;;;;;;;0.88;0.53;;;;;;;17.36;62.34;101660.76;1676453;83;21638;-74
2022/09/02 07:29:13;;;;;;;1.35;0.60;;;;;;;17.50;62.28;101653.39;1680769;83;21435;-74
2022/09/02 07:31:58;;;;;;;0.85;0.60;;;;;;;17.64;62.14;101655.62;1688012;83;21101;-75
2022/09/02 07:34:43;;;;;;;2.47;0.70;;;;;;;17.73;61.84;101656.22;1682994;82;21119;-75
2022/09/02 07:37:28;;;;;;;2.83;0.57;;;;;;;17.83;61.95;101652.88;1674526;83;21098;-74
2022/09/02 07:40:14;;;;;;;1.00;0.37;;;;;;;18.00;61.90;101653.69;1672438;83;21075;-75
2022/09/02 07:42:59;;;;;;;3.20;0.50;;;;;;;18.14;61.77;101654.13;1694818;83;21518;-76
2022/09/02 07:45:44;;;;;;;8.03;0.85;;;;;;;18.26;61.62;101658.10;1681215;82;21515;-83
2022/09/02 07:48:30;;;;;;;2.83;0.50;;;;;;;18.27;61.34;101654.13;1714919;82;21030;-79
2022/09/02 07:51:15;;;;;;;0.55;0.40;;;;;;;18.30;61.33;101663.20;1715517;82;21012;-80
2022/09/02 07:54:02;;;;;;;0.80;0.50;;;;;;;18.41;61.29;101656.31;1711492;82;21054;-81
2022/09/02 07:56:48;;;;;;;1.55;0.53;;;;;;;18.56;61.08;101660.20;1714500;82;20970;-81
2022/09/02 07:59:33;;;;;;;0.30;0.30;;;;;;;18.55;61.01;101658.04;1707551;82;21245;-78
2022/09/02 08:02:18;;;;;;;0.70;0.25;;;;;;;18.65;60.94;101656.01;1711318;82;21382;-79
2022/09/02 08:05:04;;;;;;;1.92;0.47;;;;;;;18.98;60.88;101657.48;1709445;82;21129;-76
2022/09/02 08:07:49;;;;;;;2.92;0.82;;;;;;;19.27;60.67;101652.95;1706390;82;21089;-80
2022/09/02 08:10:35;;;;;;;0.50;0.33;;;;;;;19.69;60.33;101658.00;1711381;82;21097;-77
2022/09/02 08:13:22;;;;;;;0.60;0.50;;;;;;;20.32;60.14;101655.52;1695081;82;21107;-76
2022/09/02 08:16:08;;;;;;;0.47;0.45;;;;;;;22.57;59.53;101649.34;1705630;82;21085;-76
2022/09/02 08:18:54;;;;;;;0.85;0.37;;;;;;;24.21;58.37;101654.24;1709014;82;21100;-77
2022/09/02 08:21:39;;;;;;;3.25;0.60;;;;;;;25.34;57.98;101653.73;1703527;82;21740;-76
2022/09/02 08:24:24;;;;;;;0.68;0.60;;;;;;;27.04;57.15;101654.14;1699515;82;21580;-77
2022/09/02 08:27:09;;;;;;;0.70;0.70;;;;;;;28.30;56.80;101657.05;1720995;82;21074;-77
2022/09/02 08:29:54;;;;;;;0.90;0.55;;;;;;;29.60;55.72;101655.06;1707583;82;21083;-77
2022/09/02 08:32:40;;;;;;;0.57;0.53;;;;;;;30.62;54.78;101649.33;1708735;82;21109;-77
2022/09/02 08:35:26;;;;;;;1.75;0.88;;;;;;;30.99;54.14;101644.84;1709334;82;20990;-77
2022/09/02 08:38:10;;;;;;;1.15;0.70;;;;;;;31.37;54.14;101646.38;1713786;82;21465;-79
2022/09/02 08:40:56;;;;;;;3.43;0.90;;;;;;;31.53;52.93;101644.05;1556693;82;5001574;-79
2022/09/02 08:43:44;;;;;;;0.62;0.55;;;;;;;30.59;52.97;101646.92;1661614;83;21473;-79
2022/09/02 08:46:31;;;;;;;0.70;0.40;;;;;;;29.31;53.21;101646.66;1639776;84;21485;-79
2022/09/02 08:49:28;;;;;;;3.70;0.62;;;;;;;28.25;53.15;101645.05;1657246;85;20905;-79
2022/09/02 08:52:47;;;;;;;1.27;0.60;;;;;;;27.10;52.69;101638.27;1649967;85;20921;-79
2022/09/02 08:55:45;;;;;;;2.20;0.53;;;;;;;26.12;52.26;101640.84;1638735;85;21122;-78
2022/09/02 08:58:38;;;;;;;1.42;0.53;;;;;;;25.26;51.93;101641.91;1660556;85;21144;-79
2022/09/02 09:01:50;;;;;;;2.50;0.60;;;;;;;24.59;51.34;101634.02;1639805;85;21048;-79
2022/09/02 09:05:18;;;;;;;0.88;0.50;;;;;;;23.96;50.88;101642.02;1619110;87;21515;-78
2022/09/02 09:08:20;;;;;;;1.75;0.75;;;;;;;23.25;50.58;101630.94;1625499;85;21124;-78
2022/09/02 09:11:17;;;;;;;0.68;0.40;;;;;;;22.75;50.39;101626.02;1634001;85;21612;-78
2022/09/02 09:14:25;;;;;;;2.30;0.50;;;;;;;22.41;49.84;101622.89;1634439;85;21094;-78
2022/09/02 09:17:34;;;;;;;2.35;0.78;;;;;;;22.01;49.50;101635.84;1596699;85;21107;-78
2022/09/02 09:20:26;;;;;;;2.17;0.37;;;;;;;21.54;49.10;101619.61;1624235;85;21092;-79
2022/09/02 09:23:28;;;;;;;3.05;0.95;;;;;;;21.14;48.99;101627.11;1657061;85;21564;-78
2022/09/02 09:26:22;;;;;;;0.62;0.45;;;;;;;20.92;48.79;101627.17;1622060;85;21509;-77
2022/09/02 09:29:10;;;;;;;2.90;0.60;;;;;;;20.72;48.61;101629.36;1640386;85;21102;-78
2022/09/02 09:31:58;;;;;;;2.05;0.57;;;;;;;20.53;48.19;101623.63;1639559;83;21715;-78
2022/09/02 09:34:55;;;;;;;1.07;0.30;;;;;;;20.33;47.83;101622.63;1639665;84;21185;-78
2022/09/02 09:37:47;;;;;;;1.00;0.37;;;;;;;20.25;48.24;101622.56;1652871;84;21050;-78
2022/09/02 09:40:34;;;;;;;3.58;0.55;;;;;;;20.16;47.91;101618.53;1640850;85;21017;-78
2022/09/02 09:43:19;;;;;;;1.90;0.40;;;;;;;20.18;47.82;101619.79;1612224;85;21160;-78
2022/09/02 09:46:27;;;;;;;1.15;0.40;;;;;;;20.07;47.59;101617.59;1650373;85;21657;-78
2022/09/02 09:49:18;;;;;;;0.55;0.20;;;;;;;20.14;47.68;101613.34;1613701;87;21107;-78
2022/09/02 09:52:04;;;;;;;0.68;0.33;;;;;;;20.24;47.71;101612.98;1640759;84;21074;-79
2022/09/02 09:55:03;;;;;;;1.43;0.40;;;;;;;20.28;47.49;101610.13;1635310;85;21323;-79
2022/09/02 09:57:49;;;;;;;0.33;0.20;;;;;;;20.30;47.44;101606.13;1649872;85;21068;-79
2022/09/02 10:00:37;;;;;;;1.07;0.40;;;;;;;20.33;47.38;101606.86;1610224;87;21147;-79
2022/09/02 10:03:30;;;;;;;1.45;0.30;;;;;;;20.29;47.24;101605.73;1649918;85;21114;-79
2022/09/02 10:06:26;;;;;;;0.78;0.30;;;;;;;20.25;47.28;101609.44;1641158;84;21072;-78
2022/09/02 10:09:22;;;;;;;5.65;0.40;;;;;;;20.17;47.23;101587.42;1640270;85;21060;-78
2022/09/02 10:12:11;;;;;;;1.90;0.17;;;;;;;20.17;47.06;101591.36;1650664;83;21148;-79
2022/09/02 10:14:57;;;;;;;0.55;0.20;;;;;;;20.11;47.08;101591.14;1648603;85;21024;-79
2022/09/02 10:18:14;;;;;;;1.85;0.30;;;;;;;20.01;46.68;101583.69;1636299;85;21105;-79
2022/09/02 10:21:10;;;;;;;0.30;0.20;;;;;;;19.91;46.84;101577.09;1644996;85;21533;-78
2022/09/02 10:24:18;;;;;;;2.08;0.30;;;;;;;19.84;46.89;101577.79;1600207;87;21407;-78
2022/09/02 10:27:10;;;;;;;2.08;0.40;;;;;;;19.82;46.88;101581.79;1652042;82;21136;-79
2022/09/02 10:30:10;;;;;;;0.40;0.35;;;;;;;19.77;46.66;101578.48;1618683;87;21101;-79
2022/09/02 10:33:18;;;;;;;3.22;0.30;;;;;;;19.74;46.63;101576.02;1614592;87;21163;-79
2022/09/02 10:36:31;;;;;;;4.47;0.30;;;;;;;19.76;46.66;101577.23;1629300;85;21119;-79
2022/09/02 10:39:53;;;;;;;2.30;0.20;;;;;;;19.80;46.60;101577.05;1659545;85;21105;-78
2022/09/02 10:43:06;;;;;;;1.10;0.20;;;;;;;19.86;46.58;101577.27;1652254;85;21086;-78
2022/09/02 10:45:57;;;;;;;0.65;0.20;;;;;;;19.86;46.46;101572.48;1622714;85;21044;-78
2022/09/02 10:48:56;;;;;;;0.60;0.30;;;;;;;19.83;46.37;101574.77;1633466;85;21103;-78
2022/09/02 10:51:52;;;;;;;0.62;0.30;;;;;;;19.80;46.35;101564.39;1632788;85;21059;-78
2022/09/02 10:54:48;;;;;;;0.55;0.20;;;;;;;19.80;46.35;101570.49;1647275;85;21140;-78
2022/09/02 10:57:44;;;;;;;2.25;0.23;;;;;;;19.82;46.30;101573.06;1626748;85;21037;-78
2022/09/02 11:00:31;;;;;;;1.40;0.50;;;;;;;19.85;46.23;101574.25;1634813;86;21330;-78
2022/09/02 11:03:37;;;;;;;1.20;0.30;;;;;;;19.87;46.24;101568.48;1612386;86;20945;-78
2022/09/02 11:06:34;;;;;;;2.45;0.50;;;;;;;19.88;46.23;101569.34;1631375;86;21011;-78
2022/09/02 11:09:45;;;;;;;0.72;0.20;;;;;;;19.88;46.22;101559.69;1635328;86;28266;-78
2022/09/02 11:12:47;;;;;;;0.40;0.17;;;;;;;19.89;46.16;101562.72;1634504;86;21084;-78
2022/09/02 11:15:59;;;;;;;1.40;0.30;;;;;;;19.83;46.06;101561.19;1639018;85;21172;-78
2022/09/02 11:19:21;;;;;;;8.93;0.40;;;;;;;19.80;46.07;101558.68;1615376;86;21077;-78
2022/09/02 11:22:31;;;;;;;5.20;0.35;;;;;;;19.79;46.04;101558.74;1619779;86;21049;-78
2022/09/02 11:25:38;;;;;;;0.30;0.28;;;;;;;19.77;46.02;101550.93;1631274;86;21115;-78
2022/09/02 11:28:58;;;;;;;0.60;0.30;;;;;;;19.79;45.98;101544.31;1636344;85;21121;-78
2022/09/02 11:31:57;;;;;;;2.20;0.20;;;;;;;19.82;45.97;101546.35;1649714;85;21129;-78
2022/09/02 11:34:51;;;;;;;1.02;0.30;;;;;;;19.87;45.96;101546.17;1635431;85;21083;-78
2022/09/02 11:37:48;;;;;;;1.98;0.30;;;;;;;19.92;45.95;101544.22;1639547;85;21117;-79
2022/09/02 11:41:00;;;;;;;1.35;0.30;;;;;;;19.93;45.80;101537.20;1651621;85;21117;-78
2022/09/02 11:43:59;;;;;;;2.00;0.37;;;;;;;19.85;45.70;101534.87;1626461;85;21098;-78
2022/09/02 11:47:23;;;;;;;0.42;0.20;;;;;;;19.85;45.82;101537.50;1635214;83;21132;-78
2022/09/02 11:50:45;;;;;;;1.10;0.30;;;;;;;19.93;45.82;101534.12;1571959;89;21083;-78
2022/09/02 11:53:38;;;;;;;0.72;0.33;;;;;;;19.98;45.57;101543.97;1646235;85;21062;-78
2022/09/02 11:56:27;;;;;;;0.40;0.40;;;;;;;19.92;45.47;101535.49;1625723;82;21153;-78
2022/09/02 11:59:23;;;;;;;2.45;0.40;;;;;;;19.89;45.29;101524.66;1624113;85;21112;-78
2022/09/02 12:02:12;;;;;;;1.42;0.28;;;;;;;19.92;45.46;101524.98;1620735;84;21562;-78
2022/09/02 12:05:31;;;;;;;1.22;0.40;;;;;;;20.05;45.47;101526.20;1620130;86;21194;-78
2022/09/02 12:08:36;;;;;;;1.47;0.30;;;;;;;20.12;45.26;101526.35;1630306;86;21764;-78
2022/09/02 12:11:41;;;;;;;2.02;0.28;;;;;;;20.20;45.26;101524.27;1626854;86;21553;-78
2022/09/02 12:14:33;;;;;;;2.45;0.50;;;;;;;20.21;45.12;101517.24;1648148;84;21061;-78
2022/09/02 12:17:36;;;;;;;1.70;0.40;;;;;;;20.17;45.17;101515.20;1651161;85;21113;-78
2022/09/02 12:20:47;;;;;;;0.45;0.30;;;;;;;20.20;45.14;101515.07;1588683;86;21844;-78
2022/09/02 12:23:56;;;;;;;1.02;0.40;;;;;;;20.20;45.08;101511.59;1621098;86;21095;-78
2022/09/02 12:26:47;;;;;;;0.37;0.30;;;;;;;20.14;44.97;101500.88;1659085;84;21054;-78
2022/09/02 12:29:33;;;;;;;0.82;0.50;;;;;;;20.09;44.99;101500.22;1600196;86;21670;-78
2022/09/02 12:32:48;;;;;;;0.98;0.30;;;;;;;20.08;44.89;101499.82;1631392;86;22269;-78
2022/09/02 12:35:41;;;;;;;1.67;0.35;;;;;;;20.04;44.80;101497.78;1607154;86;21228;-78
2022/09/02 12:38:34;;;;;;;0.50;0.37;;;;;;;19.98;44.50;101495.87;1617115;85;21253;-78
2022/09/02 12:41:24;;;;;;;2.35;0.40;;;;;;;19.93;44.62;101492.11;1614586;86;21099;-78
2022/09/02 12:44:33;;;;;;;7.60;0.53;;;;;;;19.91;44.62;101489.16;1617945;86;21103;-78
2022/09/02 12:47:59;;;;;;;2.10;0.40;;;;;;;19.98;44.57;101480.97;1627371;85;21122;-78
2022/09/02 12:50:54;;;;;;;0.30;0.28;;;;;;;20.03;44.51;101484.72;1618036;86;21086;-78
2022/09/02 12:53:47;;;;;;;0.90;0.35;;;;;;;20.08;44.45;101487.55;1646388;85;21117;-78
2022/09/02 12:56:32;;;;;;;0.60;0.30;;;;;;;20.09;44.36;101483.15;1621369;86;21077;-78
2022/09/02 12:59:33;;;;;;;0.20;0.20;;;;;;;20.11;44.32;101482.62;1631359;85;21138;-78
2022/09/02 13:02:58;;;;;;;0.30;0.30;;;;;;;20.12;44.10;101484.34;1610165;86;21111;-77
2022/09/02 13:05:54;;;;;;;5.78;0.30;;;;;;;20.19;44.13;101487.10;1609832;86;21166;-78
2022/09/02 13:09:19;;;;;;;3.92;0.40;;;;;;;20.30;44.00;101486.16;1617932;84;21046;-77
2022/09/02 13:12:51;;;;;;;2.57;0.50;;;;;;;20.33;43.93;101475.98;1615936;86;20978;-80
2022/09/02 13:16:14;;;;;;;1.67;0.50;;;;;;;20.42;43.87;101479.10;1620293;85;21630;-77
2022/09/02 13:19:43;;;;;;;1.75;0.50;;;;;;;20.45;43.75;101491.25;1631456;86;20999;-77
2022/09/02 13:22:54;;;;;;;0.85;0.50;;;;;;;20.39;43.67;101486.26;1514646;91;21110;-77